createdAt,value
2023-05-03T00:01:34.777Z,95446.75
2023-05-03T00:04:04.668Z,95454.16
2023-05-03T00:06:32.745Z,95455.56
2023-05-03T00:09:00.731Z,95451.44
2023-05-03T00:11:28.646Z,95453.03
2023-05-03T00:13:56.592Z,95446.50
2023-05-03T00:16:24.568Z,95441.94
2023-05-03T00:18:52.500Z,95445.94
2023-05-03T00:21:21.827Z,95444.13
2023-05-03T00:23:49.774Z,95444.59
2023-05-03T00:26:17.661Z,95443.66
2023-05-03T00:28:45.801Z,95441.50
2023-05-03T00:31:13.808Z,95434.09
2023-05-03T00:33:41.881Z,95429.97
2023-05-03T00:36:10.859Z,95425.69
2023-05-03T00:38:40.917Z,95435.69
2023-05-03T00:41:11.479Z,95428.38
2023-05-03T00:43:39.993Z,95437.19
2023-05-03T00:46:16.719Z,95424.28
2023-05-03T00:48:46.390Z,95428.59
2023-05-03T00:51:15.564Z,95430.66
2023-05-03T00:53:45.123Z,95429.06
2023-05-03T00:56:19.465Z,95436.34
2023-05-03T00:58:47.424Z,95435.50
2023-05-03T01:01:15.726Z,95437.47
2023-05-03T01:03:43.941Z,95437.72
2023-05-03T01:06:19.360Z,95431.88
2023-05-03T01:08:59.637Z,95439.63
2023-05-03T01:11:38.716Z,95428.59
2023-05-03T01:14:16.273Z,95435.09
2023-05-03T01:16:50.889Z,95427.81
2023-05-03T01:19:29.934Z,95434.66
2023-05-03T01:22:16.133Z,95431.00
2023-05-03T01:24:48.577Z,95430.53
2023-05-03T01:27:19.313Z,95430.53
2023-05-03T01:29:47.317Z,95431.00
2023-05-03T01:32:24.703Z,95426.22
2023-05-03T01:35:03.525Z,95436.69
2023-05-03T01:37:33.118Z,95433.47
2023-05-03T01:40:05.146Z,95429.16
2023-05-03T01:42:37.406Z,95433.94
2023-05-03T01:45:06.355Z,95433.47
2023-05-03T01:47:34.356Z,95432.78
2023-05-03T01:50:02.842Z,95421.19
2023-05-03T01:52:32.381Z,95423.22
2023-05-03T01:55:00.730Z,95431.75
2023-05-03T01:57:28.699Z,95435.03
2023-05-03T01:59:58.039Z,95430.88
2023-05-03T02:02:26.194Z,95439.19
2023-05-03T02:04:54.254Z,95432.94
2023-05-03T02:07:22.316Z,95433.50
2023-05-03T02:09:50.263Z,95424.28
2023-05-03T02:12:18.506Z,95431.78
2023-05-03T02:14:46.412Z,95432.13
2023-05-03T02:17:19.033Z,95438.09
2023-05-03T02:19:46.985Z,95439.09
2023-05-03T02:22:14.912Z,95443.06
2023-05-03T02:24:43.415Z,95440.13
2023-05-03T02:27:11.365Z,95433.13
2023-05-03T02:29:40.163Z,95439.88
2023-05-03T02:32:08.184Z,95433.38
2023-05-03T02:34:37.477Z,95430.31
2023-05-03T02:37:05.702Z,95429.75
2023-05-03T02:39:34.653Z,95431.22
2023-05-03T02:42:03.063Z,95431.09
2023-05-03T02:44:33.529Z,95416.25
2023-05-03T02:47:01.713Z,95422.41
2023-05-03T02:49:29.652Z,95427.19
2023-05-03T02:51:58.938Z,95420.47
2023-05-03T02:54:26.821Z,95425.13
2023-05-03T02:56:55.680Z,95438.88
2023-05-03T02:59:23.609Z,95428.53
2023-05-03T03:01:52.303Z,95445.09
2023-05-03T03:04:20.280Z,95451.19
2023-05-03T03:06:48.341Z,95445.63
2023-05-03T03:09:18.752Z,95444.09
2023-05-03T03:11:47.359Z,95447.72
2023-05-03T03:14:17.233Z,95440.31
2023-05-03T03:16:46.415Z,95441.78
2023-05-03T03:19:15.193Z,95442.91
2023-05-03T03:21:43.265Z,95436.13
2023-05-03T03:24:11.350Z,95436.13
2023-05-03T03:26:41.878Z,95436.53
2023-05-03T03:29:10.864Z,95439.31
2023-05-03T03:31:42.535Z,95436.53
2023-05-03T03:34:10.578Z,95435.50
2023-05-03T03:36:39.330Z,95437.69
2023-05-03T03:39:07.548Z,95440.31
2023-05-03T03:41:37.360Z,95446.97
2023-05-03T03:44:07.251Z,95447.88
2023-05-03T03:46:35.422Z,95446.97
2023-05-03T03:49:03.452Z,95436.53
2023-05-03T03:51:32.449Z,95441.53
2023-05-03T03:54:00.762Z,95436.59
2023-05-03T03:56:34.279Z,95443.22
2023-05-03T03:59:02.262Z,95447.16
2023-05-03T04:01:31.765Z,95449.75
2023-05-03T04:04:00.284Z,95457.03
2023-05-03T04:06:29.025Z,95446.41
2023-05-03T04:08:57.713Z,95440.81
2023-05-03T04:11:26.109Z,95452.28
2023-05-03T04:14:00.188Z,95446.41
2023-05-03T04:16:28.212Z,95442.97
2023-05-03T04:18:57.544Z,95451.84
2023-05-03T04:21:25.625Z,95455.09
2023-05-03T04:23:53.634Z,95459.59
2023-05-03T04:26:31.319Z,95454.06
2023-05-03T04:29:07.076Z,95463.06
2023-05-03T04:31:36.700Z,95448.34
2023-05-03T04:34:06.026Z,95460.09
2023-05-03T04:36:34.574Z,95467.22
2023-05-03T04:39:02.589Z,95457.47
2023-05-03T04:41:30.598Z,95456.00
2023-05-03T04:43:58.937Z,95468.63
2023-05-03T04:46:27.081Z,95464.41
2023-05-03T04:48:55.065Z,95460.56
2023-05-03T04:51:24.983Z,95466.59
2023-05-03T04:53:54.544Z,95460.94
2023-05-03T04:56:26.469Z,95460.34
2023-05-03T04:59:01.017Z,95459.91
2023-05-03T05:01:29.940Z,95466.59
2023-05-03T05:04:02.135Z,95468.19
2023-05-03T05:06:38.284Z,95476.25
2023-05-03T05:09:08.562Z,95482.28
2023-05-03T05:11:37.304Z,95470.66
2023-05-03T05:14:05.249Z,95473.53
2023-05-03T05:16:34.568Z,95476.75
2023-05-03T05:19:04.075Z,95467.91
2023-05-03T05:21:32.263Z,95483.59
2023-05-03T05:24:02.574Z,95486.59
2023-05-03T05:26:31.090Z,95486.19
2023-05-03T05:28:59.293Z,95489.97
2023-05-03T05:31:27.292Z,95495.78
2023-05-03T05:33:55.828Z,95485.81
2023-05-03T05:36:24.565Z,95495.22
2023-05-03T05:38:52.729Z,95484.91
2023-05-03T05:41:22.093Z,95486.50
2023-05-03T05:43:50.419Z,95482.88
2023-05-03T05:46:21.130Z,95488.66
2023-05-03T05:48:52.512Z,95486.34
2023-05-03T05:51:22.287Z,95482.28
2023-05-03T05:53:50.249Z,95490.25
2023-05-03T05:56:21.759Z,95481.78
2023-05-03T05:58:49.726Z,95490.59
2023-05-03T06:01:17.658Z,95476.03
2023-05-03T06:03:45.643Z,95472.31
2023-05-03T06:06:13.734Z,95483.31
2023-05-03T06:08:41.755Z,95484.19
2023-05-03T06:11:09.746Z,95472.13
2023-05-03T06:13:40.779Z,95490.25
2023-05-03T06:16:10.132Z,95472.97
2023-05-03T06:18:39.118Z,95471.53
2023-05-03T06:21:08.209Z,95476.16
2023-05-03T06:23:37.945Z,95476.97
2023-05-03T06:26:05.925Z,95477.69
2023-05-03T06:28:34.577Z,95479.88
2023-05-03T06:31:03.972Z,95481.34
2023-05-03T06:33:33.717Z,95476.47
2023-05-03T06:36:01.786Z,95470.34
2023-05-03T06:38:30.005Z,95473.53
2023-05-03T06:40:58.274Z,95479.00
2023-05-03T06:43:26.359Z,95469.72
2023-05-03T06:45:57.489Z,95468.44
2023-05-03T06:48:27.924Z,95477.06
2023-05-03T06:50:56.100Z,95456.72
2023-05-03T06:53:24.028Z,95460.69
2023-05-03T06:55:52.220Z,95466.75
2023-05-03T06:58:20.111Z,95461.97
2023-05-03T07:00:48.023Z,95460.50
2023-05-03T07:03:16.045Z,95452.16
2023-05-03T07:05:46.581Z,95456.94
2023-05-03T07:08:14.520Z,95448.53
2023-05-03T07:10:42.437Z,95454.38
2023-05-03T07:13:10.354Z,95452.84
2023-05-03T07:15:38.389Z,95450.63
2023-05-03T07:18:06.402Z,95446.88
2023-05-03T07:20:34.491Z,95442.44
2023-05-03T07:23:04.393Z,95433.78
2023-05-03T07:25:32.290Z,95429.84
2023-05-03T07:28:00.486Z,95433.69
2023-05-03T07:30:29.487Z,95434.81
2023-05-03T07:32:57.629Z,95420.63
2023-05-03T07:35:26.796Z,95431.84
2023-05-03T07:37:54.782Z,95429.19
2023-05-03T07:40:24.239Z,95416.97
2023-05-03T07:42:52.190Z,95416.75
2023-05-03T07:45:20.952Z,95417.03
2023-05-03T07:47:49.050Z,95420.47
2023-05-03T07:50:17.115Z,95418.88
2023-05-03T07:52:45.173Z,95408.50
2023-05-03T07:55:13.109Z,95413.34
2023-05-03T07:57:42.376Z,95410.41
2023-05-03T08:00:12.483Z,95419.19
2023-05-03T08:02:40.829Z,95411.72
2023-05-03T08:05:09.890Z,95417.47
2023-05-03T08:07:37.973Z,95416.50
2023-05-03T08:10:06.682Z,95417.94
2023-05-03T08:12:34.639Z,95422.38
2023-05-03T08:15:05.081Z,95413.59
2023-05-03T08:17:33.046Z,95411.03
2023-05-03T08:20:01.270Z,95414.50
2023-05-03T08:22:29.344Z,95420.72
2023-05-03T08:24:57.231Z,95419.28
2023-05-03T08:27:28.066Z,95405.47
2023-05-03T08:29:56.028Z,95416.91
2023-05-03T08:32:25.689Z,95417.84
2023-05-03T08:34:53.992Z,95415.56
2023-05-03T08:37:22.096Z,95419.53
2023-05-03T08:39:50.239Z,95414.00
2023-05-03T08:42:18.202Z,95417.25
2023-05-03T08:44:49.463Z,95417.03
2023-05-03T08:47:18.180Z,95422.75
2023-05-03T08:49:48.402Z,95423.06
2023-05-03T08:52:18.435Z,95417.31
2023-05-03T08:54:47.231Z,95427.84
2023-05-03T08:57:16.372Z,95435.91
2023-05-03T08:59:50.869Z,95433.75
2023-05-03T09:02:18.978Z,95432.34
2023-05-03T09:04:48.384Z,95437.03
2023-05-03T09:07:16.931Z,95437.34
2023-05-03T09:10:01.816Z,95426.72
2023-05-03T09:12:37.240Z,95423.09
2023-05-03T09:15:06.557Z,95422.84
2023-05-03T09:17:34.722Z,95423.03
2023-05-03T09:20:04.536Z,95415.81
2023-05-03T09:22:34.024Z,95421.69
2023-05-03T09:25:02.483Z,95417.53
2023-05-03T09:27:30.564Z,95411.09
2023-05-03T09:29:58.529Z,95427.69
2023-05-03T09:32:28.951Z,95432.38
2023-05-03T09:35:11.490Z,95420.16
2023-05-03T09:37:39.540Z,95431.72
2023-05-03T09:40:10.236Z,95430.69
2023-05-03T09:42:38.209Z,95420.53
2023-05-03T09:45:07.995Z,95421.41
2023-05-03T09:47:50.882Z,95419.81
2023-05-03T09:50:20.446Z,95419.06
2023-05-03T09:52:48.510Z,95406.59
2023-05-03T09:55:17.698Z,95409.47
2023-05-03T09:57:49.056Z,95408.19
2023-05-03T10:00:20.698Z,95402.34
2023-05-03T10:02:51.994Z,95405.25
2023-05-03T10:05:22.891Z,95407.50
2023-05-03T10:07:53.257Z,95410.66
2023-05-03T10:10:22.517Z,95409.69
2023-05-03T10:12:53.954Z,95412.34
2023-05-03T10:15:24.673Z,95410.75
2023-05-03T10:17:54.943Z,95416.03
2023-05-03T10:20:29.767Z,95410.00
2023-05-03T10:23:11.645Z,95421.38
2023-05-03T10:25:41.303Z,95418.19
2023-05-03T10:28:10.642Z,95408.78
2023-05-03T10:30:39.808Z,95413.09
2023-05-03T10:33:37.944Z,95423.63
2023-05-03T10:36:10.630Z,95406.69
2023-05-03T10:38:39.178Z,95404.66
2023-05-03T10:41:07.220Z,95407.91
2023-05-03T10:43:48.912Z,95407.13
2023-05-03T10:46:36.455Z,95398.69
2023-05-03T10:49:26.517Z,95408.50
2023-05-03T10:51:56.923Z,95402.72
2023-05-03T10:54:25.713Z,95405.38
2023-05-03T10:56:57.571Z,95397.97
2023-05-03T10:59:26.452Z,95394.28
2023-05-03T11:01:55.328Z,95401.44
2023-05-03T11:04:39.336Z,95403.81
2023-05-03T11:07:10.152Z,95398.53
2023-05-03T11:09:38.644Z,95395.34
2023-05-03T11:12:08.629Z,95387.97
2023-05-03T11:14:36.731Z,95397.19
2023-05-03T11:17:04.734Z,95390.03
2023-05-03T11:19:33.671Z,95399.00
2023-05-03T11:22:02.497Z,95397.44
2023-05-03T11:24:31.814Z,95398.00
2023-05-03T11:26:59.766Z,95396.44
2023-05-03T11:29:36.265Z,95389.56
2023-05-03T11:32:04.208Z,95388.00
2023-05-03T11:34:32.340Z,95389.03
2023-05-03T11:37:00.674Z,95388.00
2023-05-03T11:39:33.392Z,95397.00
2023-05-03T11:42:05.293Z,95393.81
2023-05-03T11:44:33.361Z,95383.75
2023-05-03T11:47:01.628Z,95385.34
2023-05-03T11:49:29.923Z,95389.81
2023-05-03T11:51:57.947Z,95389.31
2023-05-03T11:54:28.005Z,95390.63
2023-05-03T11:57:00.983Z,95386.16
2023-05-03T11:59:36.390Z,95377.41
2023-05-03T12:02:06.147Z,95380.00
2023-05-03T12:04:34.650Z,95375.78
2023-05-03T12:07:04.556Z,95372.06
2023-05-03T12:09:33.081Z,95370.44
2023-05-03T12:12:04.194Z,95372.53
2023-05-03T12:14:59.090Z,95373.59
2023-05-03T12:17:38.809Z,95365.19
2023-05-03T12:22:51.261Z,95372.03
2023-05-03T12:25:21.133Z,95374.69
2023-05-03T12:28:07.313Z,95364.16
2023-05-03T12:30:40.756Z,95359.91
2023-05-03T12:33:10.323Z,95364.59
2023-05-03T12:35:40.985Z,95366.16
2023-05-03T12:38:10.529Z,95369.94
2023-05-03T12:40:39.737Z,95371.00
2023-05-03T12:43:09.632Z,95364.84
2023-05-03T12:45:40.585Z,95358.19
2023-05-03T12:48:09.334Z,95353.16
2023-05-03T12:50:39.132Z,95348.66
2023-05-03T12:53:09.734Z,95349.97
2023-05-03T12:55:43.288Z,95346.28
2023-05-03T12:58:43.177Z,95341.78
2023-05-03T13:01:37.944Z,95344.88
2023-05-03T13:04:04.931Z,95338.66
2023-05-03T13:06:42.957Z,95330.31
2023-05-03T13:09:19.090Z,95331.19
2023-05-03T13:11:50.201Z,95321.66
2023-05-03T13:14:20.565Z,95323.28
2023-05-03T13:16:51.395Z,95322.25
2023-05-03T13:19:19.643Z,95321.56
2023-05-03T13:21:49.477Z,95310.16
2023-05-03T13:24:17.657Z,95315.13
2023-05-03T13:26:45.613Z,95318.22
2023-05-03T13:29:13.583Z,95315.03
2023-05-03T13:31:43.002Z,95306.19
2023-05-03T13:34:10.926Z,95306.00
2023-05-03T13:36:38.902Z,95306.69
2023-05-03T13:39:09.688Z,95296.16
2023-05-03T13:41:40.596Z,95298.81
2023-05-03T13:44:09.452Z,95311.00
2023-05-03T13:46:38.240Z,95301.97
2023-05-03T13:49:08.574Z,95295.97
2023-05-03T13:51:37.389Z,95290.47
2023-05-03T13:54:06.478Z,95290.78
2023-05-03T13:56:34.682Z,95293.34
2023-05-03T13:59:03.129Z,95292.94
2023-05-03T14:01:31.510Z,95295.59
2023-05-03T14:03:59.615Z,95283.31
2023-05-03T14:06:31.978Z,95281.31
2023-05-03T14:09:01.816Z,95273.75
2023-05-03T14:11:31.468Z,95275.59
2023-05-03T14:13:59.850Z,95266.38
2023-05-03T14:18:59.308Z,95271.97
2023-05-03T14:21:31.862Z,95266.09
2023-05-03T14:24:00.025Z,95264.34
2023-05-03T14:26:29.426Z,95263.34
2023-05-03T14:28:57.626Z,95258.28
2023-05-03T14:31:25.685Z,95254.56
2023-05-03T14:33:53.672Z,95252.22
2023-05-03T14:36:21.623Z,95251.75
2023-05-03T14:38:51.006Z,95261.03
2023-05-03T14:41:18.889Z,95254.50
2023-05-03T14:43:47.380Z,95254.38
2023-05-03T14:46:15.316Z,95251.78
2023-05-03T14:48:43.257Z,95252.41
2023-05-03T14:51:11.233Z,95254.97
2023-05-03T14:53:39.144Z,95258.59
2023-05-03T14:56:08.844Z,95253.41
2023-05-03T14:58:36.811Z,95241.97
2023-05-03T15:01:04.758Z,95253.94
2023-05-03T15:03:32.985Z,95249.81
2023-05-03T15:06:01.406Z,95250.25
2023-05-03T15:08:29.346Z,95247.09
2023-05-03T15:10:57.230Z,95248.91
2023-05-03T15:13:26.596Z,95240.53
2023-05-03T15:15:54.926Z,95245.75
2023-05-03T15:18:23.966Z,95247.53
2023-05-03T15:20:52.032Z,95249.13
2023-05-03T15:23:19.971Z,95250.53
2023-05-03T15:25:47.907Z,95243.56
2023-05-03T15:28:16.103Z,95249.84
2023-05-03T15:30:45.422Z,95254.63
2023-05-03T15:33:13.451Z,95250.69
2023-05-03T15:35:42.361Z,95262.50
2023-05-03T15:38:10.336Z,95256.59
2023-05-03T15:40:38.354Z,95258.19
2023-05-03T15:43:06.334Z,95257.41
2023-05-03T15:45:34.261Z,95255.03
2023-05-03T15:48:04.704Z,95257.56
2023-05-03T15:50:32.652Z,95262.13
2023-05-03T15:53:00.597Z,95256.38
2023-05-03T15:55:28.507Z,95256.97
2023-05-03T15:57:57.272Z,95255.09
2023-05-03T16:00:25.864Z,95256.41
2023-05-03T16:02:54.111Z,95262.31
2023-05-03T16:05:23.571Z,95258.56
2023-05-03T16:07:51.917Z,95254.25
2023-05-03T16:10:21.743Z,95260.13
2023-05-03T16:12:51.086Z,95254.31
2023-05-03T16:15:19.228Z,95255.22
2023-05-03T16:17:47.308Z,95255.78
2023-05-03T16:20:15.296Z,95252.19
2023-05-03T16:22:46.029Z,95269.53
2023-05-03T16:25:14.766Z,95265.88
2023-05-03T16:27:42.798Z,95269.56
2023-05-03T16:30:11.609Z,95266.56
2023-05-03T16:32:40.146Z,95267.38
2023-05-03T16:35:08.551Z,95266.22
2023-05-03T16:37:37.632Z,95272.63
2023-05-03T16:40:11.222Z,95270.78
2023-05-03T16:42:39.517Z,95276.25
2023-05-03T16:45:08.776Z,95273.38
2023-05-03T16:47:36.787Z,95278.53
2023-05-03T16:50:07.993Z,95286.41
2023-05-03T16:52:40.016Z,95286.41
2023-05-03T16:55:10.911Z,95282.06
2023-05-03T16:57:39.903Z,95283.47
2023-05-03T17:00:10.147Z,95284.81
2023-05-03T17:02:39.766Z,95282.47
2023-05-03T17:05:08.864Z,95276.72
2023-05-03T17:07:36.842Z,95280.28
2023-05-03T17:10:06.664Z,95285.44
2023-05-03T17:12:36.654Z,95274.34
2023-05-03T17:15:05.154Z,95286.78
2023-05-03T17:17:33.552Z,95285.59
2023-05-03T17:20:01.635Z,95287.50
2023-05-03T17:22:29.722Z,95280.09
2023-05-03T17:24:58.377Z,95278.69
2023-05-03T17:27:26.344Z,95278.81
2023-05-03T17:29:57.322Z,95287.00
2023-05-03T17:32:25.491Z,95280.66
2023-05-03T17:34:53.426Z,95276.53
2023-05-03T17:37:23.246Z,95283.19
2023-05-03T17:39:51.169Z,95277.69
2023-05-03T17:42:19.208Z,95276.75
2023-05-03T17:44:47.755Z,95278.63
2023-05-03T17:47:17.488Z,95277.91
2023-05-03T17:49:45.401Z,95284.13
2023-05-03T17:52:13.339Z,95284.69
2023-05-03T17:54:41.695Z,95275.97
2023-05-03T17:57:09.870Z,95281.47
2023-05-03T17:59:37.762Z,95291.50
2023-05-03T18:02:05.812Z,95291.00
2023-05-03T18:04:35.168Z,95291.28
2023-05-03T18:07:03.147Z,95289.63
2023-05-03T18:09:33.237Z,95292.78
2023-05-03T18:12:03.633Z,95294.38
2023-05-03T18:14:31.970Z,95299.00
2023-05-03T18:16:59.890Z,95302.88
2023-05-03T18:19:28.317Z,95303.66
2023-05-03T18:21:57.698Z,95300.16
2023-05-03T18:24:25.616Z,95298.56
2023-05-03T18:26:53.544Z,95301.28
2023-05-03T18:29:21.439Z,95299.22
2023-05-03T18:31:49.427Z,95292.41
2023-05-03T18:34:17.593Z,95304.91
2023-05-03T18:36:45.731Z,95305.53
2023-05-03T18:39:15.066Z,95301.94
2023-05-03T18:41:42.958Z,95309.94
2023-05-03T18:44:10.899Z,95311.56
2023-05-03T18:46:38.858Z,95303.19
2023-05-03T18:49:06.827Z,95307.97
2023-05-03T18:51:34.862Z,95307.50
2023-05-03T18:54:02.909Z,95312.28
2023-05-03T18:56:32.416Z,95313.34
2023-05-03T18:59:00.321Z,95311.25
2023-05-03T19:01:28.337Z,95304.91
2023-05-03T19:03:56.336Z,95310.22
2023-05-03T19:06:24.525Z,95308.13
2023-05-03T19:08:53.923Z,95310.25
2023-05-03T19:11:21.988Z,95317.13
2023-05-03T19:13:51.309Z,95318.72
2023-05-03T19:16:19.408Z,95315.53
2023-05-03T19:18:48.198Z,95315.03
2023-05-03T19:21:17.483Z,95324.28
2023-05-03T19:23:45.583Z,95318.47
2023-05-03T19:26:13.581Z,95326.13
2023-05-03T19:28:41.699Z,95321.91
2023-05-03T19:31:11.179Z,95328.50
2023-05-03T19:33:39.138Z,95331.66
2023-05-03T19:36:07.382Z,95338.03
2023-05-03T19:38:36.544Z,95334.03
2023-05-03T19:41:08.240Z,95328.75
2023-05-03T19:43:36.453Z,95335.09
2023-05-03T19:46:04.565Z,95340.38
2023-05-03T19:48:34.521Z,95350.94
2023-05-03T19:51:02.589Z,95353.56
2023-05-03T19:53:31.446Z,95343.81
2023-05-03T19:56:00.851Z,95355.69
2023-05-03T19:58:29.057Z,95362.03
2023-05-03T20:00:59.574Z,95358.34
2023-05-03T20:03:28.040Z,95359.38
2023-05-03T20:05:57.548Z,95361.50
2023-05-03T20:08:25.639Z,95360.97
2023-05-03T20:10:55.357Z,95362.28
2023-05-03T20:13:25.904Z,95367.31
2023-05-03T20:15:53.932Z,95372.03
2023-05-03T20:18:22.056Z,95370.88
2023-05-03T20:20:50.095Z,95368.75
2023-05-03T20:23:19.506Z,95367.91
2023-05-03T20:25:47.409Z,95372.88
2023-05-03T20:28:15.321Z,95376.31
2023-05-03T20:30:43.377Z,95377.56
2023-05-03T20:33:11.604Z,95374.94
2023-05-03T20:35:39.572Z,95379.16
2023-05-03T20:38:07.503Z,95381.75
2023-05-03T20:40:36.808Z,95375.94
2023-05-03T20:43:04.902Z,95385.91
2023-05-03T20:45:33.047Z,95378.75
2023-05-03T20:48:01.033Z,95378.97
2023-05-03T20:50:28.993Z,95373.72
2023-05-03T20:52:57.204Z,95377.41
2023-05-03T20:55:25.110Z,95380.56
2023-05-03T20:57:54.370Z,95373.19
2023-05-03T21:00:22.367Z,95378.44
2023-05-03T21:02:53.439Z,95384.19
2023-05-03T21:05:22.584Z,95387.28
2023-05-03T21:07:50.696Z,95386.09
2023-05-03T21:10:18.687Z,95389.22
2023-05-03T21:12:46.723Z,95390.22
2023-05-03T21:15:16.176Z,95390.50
2023-05-03T21:17:44.139Z,95384.72
2023-05-03T21:20:12.821Z,95384.72
2023-05-03T21:22:40.786Z,95398.16
2023-05-03T21:25:09.691Z,95391.81
2023-05-03T21:27:37.755Z,95401.16
2023-05-03T21:30:07.126Z,95395.31
2023-05-03T21:32:36.638Z,95393.72
2023-05-03T21:35:04.740Z,95393.72
2023-05-03T21:37:32.736Z,95389.25
2023-05-03T21:40:02.581Z,95393.22
2023-05-03T21:42:31.147Z,95396.91
2023-05-03T21:44:59.055Z,95386.84
2023-05-03T21:47:28.633Z,95390.03
2023-05-03T21:49:59.175Z,95393.72
2023-05-03T21:52:27.114Z,95394.75
2023-05-03T21:54:55.028Z,95394.91
2023-05-03T21:57:22.959Z,95393.53
2023-05-03T21:59:51.186Z,95398.28
2023-05-03T22:02:19.257Z,95396.78
2023-05-03T22:04:47.306Z,95399.44
2023-05-03T22:07:17.563Z,95396.56
2023-05-03T22:09:47.065Z,95397.97
2023-05-03T22:12:23.443Z,95406.41
2023-05-03T22:14:51.821Z,95404.31
2023-05-03T22:17:19.893Z,95395.38
2023-05-03T22:19:47.771Z,95395.94
2023-05-03T22:22:17.045Z,95399.06
2023-05-03T22:24:45.008Z,95407.44
2023-05-03T22:27:13.035Z,95400.03
2023-05-03T22:29:40.913Z,95400.03
2023-05-03T22:32:08.870Z,95397.97
2023-05-03T22:34:36.843Z,95400.03
2023-05-03T22:37:04.747Z,95399.44
2023-05-03T22:39:34.114Z,95398.81
2023-05-03T22:42:02.084Z,95399.78
2023-05-03T22:44:30.018Z,95401.31
2023-05-03T22:46:57.920Z,95401.25
2023-05-03T22:49:25.874Z,95402.31
2023-05-03T22:51:53.780Z,95397.59
2023-05-03T22:54:22.519Z,95406.53
2023-05-03T22:56:52.806Z,95408.59
2023-05-03T22:59:20.743Z,95401.75
2023-05-03T23:01:49.640Z,95393.78
2023-05-03T23:04:17.777Z,95397.94
2023-05-03T23:06:45.706Z,95402.91
2023-05-03T23:09:13.683Z,95398.13
2023-05-03T23:11:41.564Z,95397.47
2023-05-03T23:14:10.831Z,95398.78
2023-05-03T23:16:39.822Z,95396.69
2023-05-03T23:19:08.279Z,95393.25
2023-05-03T23:21:36.281Z,95397.81
2023-05-03T23:24:04.216Z,95393.03
2023-05-03T23:26:32.153Z,95400.34
2023-05-03T23:29:00.803Z,95402.44
2023-05-03T23:31:31.493Z,95402.94
2023-05-03T23:34:01.335Z,95395.28
2023-05-03T23:36:29.288Z,95392.84
2023-05-03T23:38:57.175Z,95399.13
2023-05-03T23:41:25.264Z,95400.72
2023-05-03T23:43:53.162Z,95399.13
2023-05-03T23:46:21.208Z,95400.72
2023-05-03T23:48:50.507Z,95401.22
2023-05-03T23:51:18.389Z,95406.94
2023-05-03T23:53:46.326Z,95401.66
2023-05-03T23:56:14.223Z,95403.75
2023-05-03T23:58:42.134Z,95407.91
